sensor_id;sensor_type;location;lat;lon;timestamp;P1;durP1;ratioP1;P2;durP2;ratioP2
39344;SDS011;25061;51.954;6.996;2022-09-09T00:02:19;3.38;;;1.02;;
39344;SDS011;25061;51.954;6.996;2022-09-09T00:04:53;3.90;;;1.00;;
39344;SDS011;25061;51.954;6.996;2022-09-09T00:07:45;3.65;;;1.05;;
39344;SDS011;25061;51.954;6.996;2022-09-09T00:16:27;3.72;;;0.82;;
39344;SDS011;25061;51.954;6.996;2022-09-09T00:21:15;4.80;;;0.90;;
39344;SDS011;25061;51.954;6.996;2022-09-09T00:23:50;2.47;;;0.85;;
39344;SDS011;25061;51.954;6.996;2022-09-09T00:29:03;2.40;;;0.80;;
39344;SDS011;25061;51.954;6.996;2022-09-09T00:31:30;1.98;;;0.80;;
39344;SDS011;25061;51.954;6.996;2022-09-09T00:33:58;2.60;;;0.85;;
39344;SDS011;25061;51.954;6.996;2022-09-09T00:36:29;3.90;;;0.95;;
39344;SDS011;25061;51.954;6.996;2022-09-09T00:38:59;2.00;;;0.80;;
39344;SDS011;25061;51.954;6.996;2022-09-09T00:52:30;2.75;;;0.88;;
39344;SDS011;25061;51.954;6.996;2022-09-09T00:57:58;2.08;;;0.70;;
39344;SDS011;25061;51.954;6.996;2022-09-09T01:00:28;2.00;;;0.80;;
39344;SDS011;25061;51.954;6.996;2022-09-09T01:05:57;2.00;;;0.70;;
39344;SDS011;25061;51.954;6.996;2022-09-09T01:11:16;1.08;;;0.70;;
39344;SDS011;25061;51.954;6.996;2022-09-09T01:14:01;3.65;;;1.00;;
39344;SDS011;25061;51.954;6.996;2022-09-09T01:16:44;2.35;;;0.77;;
39344;SDS011;25061;51.954;6.996;2022-09-09T01:19:14;3.85;;;1.00;;
39344;SDS011;25061;51.954;6.996;2022-09-09T01:22:03;3.03;;;0.80;;
39344;SDS011;25061;51.954;6.996;2022-09-09T01:24:47;2.78;;;0.90;;
39344;SDS011;25061;51.954;6.996;2022-09-09T01:27:35;3.25;;;0.70;;
39344;SDS011;25061;51.954;6.996;2022-09-09T01:30:05;2.22;;;0.80;;
39344;SDS011;25061;51.954;6.996;2022-09-09T01:32:48;2.72;;;0.90;;
39344;SDS011;25061;51.954;6.996;2022-09-09T01:35:20;2.50;;;1.00;;
39344;SDS011;25061;51.954;6.996;2022-09-09T01:40:23;3.17;;;0.90;;
39344;SDS011;25061;51.954;6.996;2022-09-09T01:42:50;3.70;;;0.82;;
39344;SDS011;25061;51.954;6.996;2022-09-09T01:45:16;4.28;;;0.82;;
39344;SDS011;25061;51.954;6.996;2022-09-09T01:47:42;2.67;;;0.93;;
39344;SDS011;25061;51.954;6.996;2022-09-09T01:50:10;5.30;;;1.20;;
39344;SDS011;25061;51.954;6.996;2022-09-09T01:52:37;6.57;;;1.42;;
39344;SDS011;25061;51.954;6.996;2022-09-09T01:55:04;5.95;;;1.30;;
39344;SDS011;25061;51.954;6.996;2022-09-09T01:57:39;4.30;;;1.27;;
39344;SDS011;25061;51.954;6.996;2022-09-09T02:00:15;5.85;;;1.63;;
39344;SDS011;25061;51.954;6.996;2022-09-09T02:08:05;5.30;;;1.80;;
39344;SDS011;25061;51.954;6.996;2022-09-09T02:13:16;6.07;;;2.03;;
39344;SDS011;25061;51.954;6.996;2022-09-09T02:18:21;5.78;;;1.38;;
39344;SDS011;25061;51.954;6.996;2022-09-09T02:21:11;4.73;;;1.63;;
39344;SDS011;25061;51.954;6.996;2022-09-09T02:23:39;6.35;;;2.40;;
39344;SDS011;25061;51.954;6.996;2022-09-09T02:26:08;7.68;;;2.05;;
39344;SDS011;25061;51.954;6.996;2022-09-09T02:28:36;6.43;;;2.58;;
39344;SDS011;25061;51.954;6.996;2022-09-09T02:31:04;7.38;;;2.08;;
39344;SDS011;25061;51.954;6.996;2022-09-09T02:33:33;5.90;;;1.88;;
39344;SDS011;25061;51.954;6.996;2022-09-09T02:38:32;9.43;;;2.70;;
39344;SDS011;25061;51.954;6.996;2022-09-09T02:41:02;5.38;;;2.00;;
39344;SDS011;25061;51.954;6.996;2022-09-09T02:43:32;5.75;;;2.33;;
39344;SDS011;25061;51.954;6.996;2022-09-09T02:46:03;6.30;;;2.45;;
39344;SDS011;25061;51.954;6.996;2022-09-09T02:51:18;5.72;;;2.22;;
39344;SDS011;25061;51.954;6.996;2022-09-09T02:53:59;8.52;;;2.50;;
39344;SDS011;25061;51.954;6.996;2022-09-09T02:56:37;8.50;;;3.17;;
39344;SDS011;25061;51.954;6.996;2022-09-09T02:59:06;6.28;;;2.53;;
39344;SDS011;25061;51.954;6.996;2022-09-09T03:01:32;9.05;;;2.72;;
39344;SDS011;25061;51.954;6.996;2022-09-09T03:03:58;9.88;;;2.83;;
39344;SDS011;25061;51.954;6.996;2022-09-09T03:06:23;6.45;;;2.33;;
39344;SDS011;25061;51.954;6.996;2022-09-09T03:08:49;10.98;;;2.58;;
39344;SDS011;25061;51.954;6.996;2022-09-09T03:11:15;7.65;;;2.85;;
39344;SDS011;25061;51.954;6.996;2022-09-09T03:13:41;7.25;;;2.72;;
39344;SDS011;25061;51.954;6.996;2022-09-09T03:16:06;8.48;;;2.78;;
39344;SDS011;25061;51.954;6.996;2022-09-09T03:18:32;9.13;;;2.88;;
39344;SDS011;25061;51.954;6.996;2022-09-09T03:20:59;8.52;;;2.35;;
39344;SDS011;25061;51.954;6.996;2022-09-09T03:23:25;8.02;;;2.55;;
39344;SDS011;25061;51.954;6.996;2022-09-09T03:25:50;8.63;;;2.70;;
39344;SDS011;25061;51.954;6.996;2022-09-09T03:28:17;8.85;;;2.63;;
39344;SDS011;25061;51.954;6.996;2022-09-09T03:30:42;8.57;;;2.47;;
39344;SDS011;25061;51.954;6.996;2022-09-09T03:33:08;6.50;;;1.92;;
39344;SDS011;25061;51.954;6.996;2022-09-09T03:35:33;8.90;;;2.40;;
39344;SDS011;25061;51.954;6.996;2022-09-09T03:37:59;6.40;;;2.10;;
39344;SDS011;25061;51.954;6.996;2022-09-09T03:40:25;8.75;;;2.70;;
39344;SDS011;25061;51.954;6.996;2022-09-09T03:42:51;5.93;;;2.00;;
39344;SDS011;25061;51.954;6.996;2022-09-09T03:45:17;6.57;;;2.50;;
39344;SDS011;25061;51.954;6.996;2022-09-09T03:47:42;6.05;;;1.98;;
39344;SDS011;25061;51.954;6.996;2022-09-09T03:50:08;6.05;;;2.35;;
39344;SDS011;25061;51.954;6.996;2022-09-09T03:52:36;8.23;;;2.83;;
39344;SDS011;25061;51.954;6.996;2022-09-09T03:55:03;6.45;;;1.90;;
39344;SDS011;25061;51.954;6.996;2022-09-09T03:57:29;6.28;;;1.95;;
39344;SDS011;25061;51.954;6.996;2022-09-09T03:59:55;8.80;;;2.60;;
39344;SDS011;25061;51.954;6.996;2022-09-09T04:02:21;6.13;;;2.17;;
39344;SDS011;25061;51.954;6.996;2022-09-09T04:04:46;7.43;;;2.25;;
39344;SDS011;25061;51.954;6.996;2022-09-09T04:07:12;8.82;;;2.20;;
39344;SDS011;25061;51.954;6.996;2022-09-09T04:09:38;6.57;;;2.10;;
39344;SDS011;25061;51.954;6.996;2022-09-09T04:12:03;6.95;;;2.10;;
39344;SDS011;25061;51.954;6.996;2022-09-09T04:14:29;5.78;;;1.77;;
39344;SDS011;25061;51.954;6.996;2022-09-09T04:16:55;7.13;;;2.58;;
39344;SDS011;25061;51.954;6.996;2022-09-09T04:19:23;7.53;;;2.53;;
39344;SDS011;25061;51.954;6.996;2022-09-09T04:21:48;7.22;;;1.63;;
39344;SDS011;25061;51.954;6.996;2022-09-09T04:24:16;7.63;;;2.30;;
39344;SDS011;25061;51.954;6.996;2022-09-09T04:26:42;6.70;;;2.30;;
39344;SDS011;25061;51.954;6.996;2022-09-09T04:29:08;7.97;;;2.20;;
39344;SDS011;25061;51.954;6.996;2022-09-09T04:31:34;7.97;;;2.40;;
39344;SDS011;25061;51.954;6.996;2022-09-09T04:34:00;5.70;;;1.92;;
39344;SDS011;25061;51.954;6.996;2022-09-09T04:36:30;9.55;;;2.60;;
39344;SDS011;25061;51.954;6.996;2022-09-09T04:38:56;9.80;;;2.85;;
39344;SDS011;25061;51.954;6.996;2022-09-09T04:41:22;7.60;;;2.70;;
39344;SDS011;25061;51.954;6.996;2022-09-09T04:43:48;5.38;;;2.40;;
39344;SDS011;25061;51.954;6.996;2022-09-09T04:46:14;7.85;;;1.80;;
39344;SDS011;25061;51.954;6.996;2022-09-09T04:48:42;7.18;;;2.25;;
39344;SDS011;25061;51.954;6.996;2022-09-09T04:51:08;7.40;;;2.33;;
39344;SDS011;25061;51.954;6.996;2022-09-09T04:53:37;8.18;;;2.15;;
39344;SDS011;25061;51.954;6.996;2022-09-09T04:58:33;12.05;;;2.60;;
39344;SDS011;25061;51.954;6.996;2022-09-09T05:01:17;5.78;;;1.92;;
39344;SDS011;25061;51.954;6.996;2022-09-09T05:03:49;7.28;;;1.90;;
39344;SDS011;25061;51.954;6.996;2022-09-09T05:06:18;7.15;;;2.65;;
39344;SDS011;25061;51.954;6.996;2022-09-09T05:08:45;7.15;;;1.90;;
39344;SDS011;25061;51.954;6.996;2022-09-09T05:11:14;6.45;;;1.92;;
39344;SDS011;25061;51.954;6.996;2022-09-09T05:16:09;8.75;;;2.20;;
39344;SDS011;25061;51.954;6.996;2022-09-09T05:18:38;7.38;;;2.00;;
39344;SDS011;25061;51.954;6.996;2022-09-09T05:21:04;8.27;;;1.83;;
39344;SDS011;25061;51.954;6.996;2022-09-09T05:23:31;6.10;;;2.03;;
39344;SDS011;25061;51.954;6.996;2022-09-09T05:25:58;6.95;;;1.90;;
39344;SDS011;25061;51.954;6.996;2022-09-09T05:28:25;7.10;;;1.92;;
39344;SDS011;25061;51.954;6.996;2022-09-09T05:30:55;8.00;;;2.03;;
39344;SDS011;25061;51.954;6.996;2022-09-09T05:33:33;7.22;;;1.80;;
39344;SDS011;25061;51.954;6.996;2022-09-09T05:36:04;7.85;;;1.85;;
39344;SDS011;25061;51.954;6.996;2022-09-09T05:38:31;5.68;;;1.85;;
39344;SDS011;25061;51.954;6.996;2022-09-09T05:41:01;6.85;;;1.73;;
39344;SDS011;25061;51.954;6.996;2022-09-09T05:43:27;6.75;;;1.98;;
39344;SDS011;25061;51.954;6.996;2022-09-09T05:48:28;4.95;;;1.60;;
39344;SDS011;25061;51.954;6.996;2022-09-09T05:50:54;10.63;;;2.30;;
39344;SDS011;25061;51.954;6.996;2022-09-09T05:53:20;7.50;;;1.88;;
39344;SDS011;25061;51.954;6.996;2022-09-09T05:55:45;12.88;;;2.28;;
39344;SDS011;25061;51.954;6.996;2022-09-09T05:58:12;9.30;;;2.80;;
39344;SDS011;25061;51.954;6.996;2022-09-09T06:00:39;7.63;;;2.00;;
39344;SDS011;25061;51.954;6.996;2022-09-09T06:03:05;7.57;;;2.35;;
39344;SDS011;25061;51.954;6.996;2022-09-09T06:05:30;8.30;;;2.45;;
39344;SDS011;25061;51.954;6.996;2022-09-09T06:07:56;6.43;;;1.63;;
39344;SDS011;25061;51.954;6.996;2022-09-09T06:10:21;8.00;;;2.10;;
39344;SDS011;25061;51.954;6.996;2022-09-09T06:12:47;6.60;;;1.70;;
39344;SDS011;25061;51.954;6.996;2022-09-09T06:15:13;9.52;;;2.63;;
39344;SDS011;25061;51.954;6.996;2022-09-09T06:17:38;7.72;;;1.70;;
39344;SDS011;25061;51.954;6.996;2022-09-09T06:20:04;5.85;;;1.77;;
39344;SDS011;25061;51.954;6.996;2022-09-09T06:22:30;6.93;;;1.70;;
39344;SDS011;25061;51.954;6.996;2022-09-09T06:24:56;6.82;;;1.85;;
39344;SDS011;25061;51.954;6.996;2022-09-09T06:27:21;5.03;;;1.30;;
39344;SDS011;25061;51.954;6.996;2022-09-09T06:29:47;6.35;;;1.73;;
39344;SDS011;25061;51.954;6.996;2022-09-09T06:32:13;5.72;;;1.50;;
39344;SDS011;25061;51.954;6.996;2022-09-09T06:34:39;7.90;;;1.90;;
39344;SDS011;25061;51.954;6.996;2022-09-09T06:37:04;7.22;;;2.28;;
39344;SDS011;25061;51.954;6.996;2022-09-09T06:39:31;8.18;;;1.80;;
39344;SDS011;25061;51.954;6.996;2022-09-09T06:41:57;8.85;;;2.03;;
39344;SDS011;25061;51.954;6.996;2022-09-09T06:44:23;4.90;;;1.40;;
39344;SDS011;25061;51.954;6.996;2022-09-09T06:46:51;6.95;;;1.70;;
39344;SDS011;25061;51.954;6.996;2022-09-09T06:49:17;9.60;;;1.90;;
39344;SDS011;25061;51.954;6.996;2022-09-09T06:51:43;8.98;;;1.95;;
39344;SDS011;25061;51.954;6.996;2022-09-09T06:54:10;7.53;;;1.80;;
39344;SDS011;25061;51.954;6.996;2022-09-09T06:56:37;6.72;;;1.30;;
39344;SDS011;25061;51.954;6.996;2022-09-09T06:59:08;8.40;;;1.73;;
39344;SDS011;25061;51.954;6.996;2022-09-09T07:01:35;5.07;;;1.40;;
39344;SDS011;25061;51.954;6.996;2022-09-09T07:04:03;7.35;;;1.48;;
39344;SDS011;25061;51.954;6.996;2022-09-09T07:06:33;5.32;;;1.35;;
39344;SDS011;25061;51.954;6.996;2022-09-09T07:09:01;7.45;;;2.00;;
39344;SDS011;25061;51.954;6.996;2022-09-09T07:11:30;7.30;;;1.60;;
39344;SDS011;25061;51.954;6.996;2022-09-09T07:13:57;9.93;;;2.03;;
39344;SDS011;25061;51.954;6.996;2022-09-09T07:16:24;10.13;;;2.38;;
39344;SDS011;25061;51.954;6.996;2022-09-09T07:18:50;7.10;;;1.60;;
39344;SDS011;25061;51.954;6.996;2022-09-09T07:21:17;10.70;;;1.98;;
39344;SDS011;25061;51.954;6.996;2022-09-09T07:23:43;8.85;;;2.10;;
39344;SDS011;25061;51.954;6.996;2022-09-09T07:26:10;6.43;;;1.77;;
39344;SDS011;25061;51.954;6.996;2022-09-09T07:28:37;7.97;;;1.70;;
39344;SDS011;25061;51.954;6.996;2022-09-09T07:31:03;7.40;;;1.50;;
39344;SDS011;25061;51.954;6.996;2022-09-09T07:33:30;7.10;;;1.77;;
39344;SDS011;25061;51.954;6.996;2022-09-09T07:36:02;7.10;;;1.48;;
39344;SDS011;25061;51.954;6.996;2022-09-09T07:38:55;8.57;;;1.55;;
39344;SDS011;25061;51.954;6.996;2022-09-09T07:41:43;10.77;;;2.05;;
39344;SDS011;25061;51.954;6.996;2022-09-09T07:44:14;10.27;;;1.88;;
39344;SDS011;25061;51.954;6.996;2022-09-09T07:46:46;6.45;;;1.48;;
39344;SDS011;25061;51.954;6.996;2022-09-09T07:49:12;11.57;;;2.10;;
39344;SDS011;25061;51.954;6.996;2022-09-09T07:51:39;9.15;;;2.03;;
39344;SDS011;25061;51.954;6.996;2022-09-09T07:54:08;6.38;;;1.27;;
39344;SDS011;25061;51.954;6.996;2022-09-09T07:56:36;5.20;;;1.60;;
39344;SDS011;25061;51.954;6.996;2022-09-09T07:59:03;7.47;;;1.90;;
39344;SDS011;25061;51.954;6.996;2022-09-09T08:01:32;6.32;;;1.65;;
39344;SDS011;25061;51.954;6.996;2022-09-09T08:04:08;6.97;;;2.00;;
39344;SDS011;25061;51.954;6.996;2022-09-09T08:06:41;10.95;;;2.45;;
39344;SDS011;25061;51.954;6.996;2022-09-09T08:09:09;7.20;;;1.90;;
39344;SDS011;25061;51.954;6.996;2022-09-09T08:11:35;8.65;;;1.60;;
39344;SDS011;25061;51.954;6.996;2022-09-09T08:14:02;7.20;;;1.88;;
39344;SDS011;25061;51.954;6.996;2022-09-09T08:16:29;8.27;;;1.83;;
39344;SDS011;25061;51.954;6.996;2022-09-09T08:18:57;8.15;;;1.88;;
39344;SDS011;25061;51.954;6.996;2022-09-09T08:21:27;7.97;;;1.80;;
39344;SDS011;25061;51.954;6.996;2022-09-09T08:23:55;11.50;;;2.20;;
39344;SDS011;25061;51.954;6.996;2022-09-09T08:26:25;10.05;;;2.03;;
39344;SDS011;25061;51.954;6.996;2022-09-09T08:28:53;10.43;;;1.70;;
39344;SDS011;25061;51.954;6.996;2022-09-09T08:31:25;8.20;;;1.60;;
39344;SDS011;25061;51.954;6.996;2022-09-09T08:33:56;10.85;;;2.10;;
39344;SDS011;25061;51.954;6.996;2022-09-09T08:36:26;9.38;;;1.90;;
39344;SDS011;25061;51.954;6.996;2022-09-09T08:38:54;13.38;;;2.15;;
39344;SDS011;25061;51.954;6.996;2022-09-09T08:43:46;8.13;;;1.90;;
39344;SDS011;25061;51.954;6.996;2022-09-09T08:46:21;7.32;;;2.00;;
39344;SDS011;25061;51.954;6.996;2022-09-09T08:48:58;10.65;;;1.58;;
39344;SDS011;25061;51.954;6.996;2022-09-09T08:51:29;7.35;;;1.77;;
39344;SDS011;25061;51.954;6.996;2022-09-09T08:53:58;9.10;;;1.52;;
39344;SDS011;25061;51.954;6.996;2022-09-09T08:56:27;8.48;;;1.60;;
39344;SDS011;25061;51.954;6.996;2022-09-09T08:58:57;9.15;;;1.75;;
39344;SDS011;25061;51.954;6.996;2022-09-09T09:04:29;6.80;;;1.40;;
39344;SDS011;25061;51.954;6.996;2022-09-09T09:13:03;6.10;;;1.08;;
39344;SDS011;25061;51.954;6.996;2022-09-09T09:15:38;7.25;;;1.40;;
39344;SDS011;25061;51.954;6.996;2022-09-09T09:18:07;10.20;;;1.55;;
39344;SDS011;25061;51.954;6.996;2022-09-09T09:23:47;5.45;;;1.05;;
39344;SDS011;25061;51.954;6.996;2022-09-09T09:26:30;8.43;;;1.48;;
39344;SDS011;25061;51.954;6.996;2022-09-09T09:28:59;7.43;;;1.40;;
39344;SDS011;25061;51.954;6.996;2022-09-09T09:31:34;7.43;;;1.13;;
39344;SDS011;25061;51.954;6.996;2022-09-09T09:34:00;8.40;;;1.67;;
39344;SDS011;25061;51.954;6.996;2022-09-09T09:36:33;5.90;;;1.10;;
39344;SDS011;25061;51.954;6.996;2022-09-09T09:39:04;5.22;;;1.00;;
39344;SDS011;25061;51.954;6.996;2022-09-09T09:41:34;6.75;;;1.13;;
39344;SDS011;25061;51.954;6.996;2022-09-09T09:44:05;4.72;;;1.20;;
39344;SDS011;25061;51.954;6.996;2022-09-09T09:46:46;4.93;;;0.85;;
39344;SDS011;25061;51.954;6.996;2022-09-09T09:49:12;5.80;;;1.00;;
39344;SDS011;25061;51.954;6.996;2022-09-09T09:51:38;5.53;;;1.10;;
39344;SDS011;25061;51.954;6.996;2022-09-09T09:54:08;6.47;;;1.13;;
39344;SDS011;25061;51.954;6.996;2022-09-09T09:56:53;5.30;;;1.20;;
39344;SDS011;25061;51.954;6.996;2022-09-09T09:59:20;6.28;;;1.10;;
39344;SDS011;25061;51.954;6.996;2022-09-09T10:01:52;4.78;;;1.40;;
39344;SDS011;25061;51.954;6.996;2022-09-09T10:04:19;6.30;;;1.13;;
39344;SDS011;25061;51.954;6.996;2022-09-09T10:06:48;6.40;;;1.48;;
39344;SDS011;25061;51.954;6.996;2022-09-09T10:09:24;5.28;;;1.15;;
39344;SDS011;25061;51.954;6.996;2022-09-09T10:20:57;6.82;;;1.45;;
39344;SDS011;25061;51.954;6.996;2022-09-09T10:26:43;6.28;;;1.00;;
39344;SDS011;25061;51.954;6.996;2022-09-09T10:29:39;5.78;;;1.25;;
39344;SDS011;25061;51.954;6.996;2022-09-09T10:49:02;4.20;;;1.30;;
39344;SDS011;25061;51.954;6.996;2022-09-09T10:51:50;5.07;;;1.05;;
39344;SDS011;25061;51.954;6.996;2022-09-09T10:54:31;10.30;;;2.05;;
39344;SDS011;25061;51.954;6.996;2022-09-09T10:57:31;7.70;;;1.90;;
39344;SDS011;25061;51.954;6.996;2022-09-09T11:00:06;8.98;;;1.92;;
39344;SDS011;25061;51.954;6.996;2022-09-09T11:02:41;5.53;;;1.00;;
39344;SDS011;25061;51.954;6.996;2022-09-09T11:10:45;6.18;;;1.23;;
39344;SDS011;25061;51.954;6.996;2022-09-09T11:13:22;4.90;;;1.20;;
39344;SDS011;25061;51.954;6.996;2022-09-09T11:16:01;4.63;;;0.90;;
39344;SDS011;25061;51.954;6.996;2022-09-09T11:18:41;6.72;;;1.23;;
39344;SDS011;25061;51.954;6.996;2022-09-09T11:21:13;2.42;;;0.80;;
39344;SDS011;25061;51.954;6.996;2022-09-09T11:23:52;5.15;;;1.10;;
39344;SDS011;25061;51.954;6.996;2022-09-09T11:26:31;5.60;;;1.30;;
39344;SDS011;25061;51.954;6.996;2022-09-09T11:31:43;4.78;;;1.00;;
39344;SDS011;25061;51.954;6.996;2022-09-09T11:40:15;4.82;;;1.10;;
39344;SDS011;25061;51.954;6.996;2022-09-09T11:42:45;6.68;;;1.40;;
39344;SDS011;25061;51.954;6.996;2022-09-09T11:45:22;8.02;;;1.63;;
39344;SDS011;25061;51.954;6.996;2022-09-09T11:47:51;9.85;;;1.80;;
39344;SDS011;25061;51.954;6.996;2022-09-09T11:52:46;3.78;;;0.80;;
39344;SDS011;25061;51.954;6.996;2022-09-09T11:57:57;5.00;;;0.85;;
39344;SDS011;25061;51.954;6.996;2022-09-09T12:03:02;3.35;;;1.00;;
39344;SDS011;25061;51.954;6.996;2022-09-09T12:06:08;6.68;;;1.30;;
39344;SDS011;25061;51.954;6.996;2022-09-09T12:08:24;6.15;;;1.08;;
39344;SDS011;25061;51.954;6.996;2022-09-09T12:10:54;5.70;;;1.00;;
39344;SDS011;25061;51.954;6.996;2022-09-09T12:13:25;4.82;;;1.15;;
39344;SDS011;25061;51.954;6.996;2022-09-09T12:15:55;4.75;;;1.00;;
39344;SDS011;25061;51.954;6.996;2022-09-09T12:18:24;7.45;;;1.20;;
39344;SDS011;25061;51.954;6.996;2022-09-09T12:34:40;6.18;;;1.20;;
39344;SDS011;25061;51.954;6.996;2022-09-09T12:40:01;6.70;;;1.25;;
39344;SDS011;25061;51.954;6.996;2022-09-09T12:42:29;4.50;;;1.10;;
39344;SDS011;25061;51.954;6.996;2022-09-09T12:45:01;6.70;;;1.23;;
39344;SDS011;25061;51.954;6.996;2022-09-09T12:47:37;7.47;;;2.00;;
39344;SDS011;25061;51.954;6.996;2022-09-09T12:50:19;4.40;;;1.00;;
39344;SDS011;25061;51.954;6.996;2022-09-09T12:52:47;5.13;;;1.60;;
39344;SDS011;25061;51.954;6.996;2022-09-09T12:55:17;5.90;;;1.40;;
39344;SDS011;25061;51.954;6.996;2022-09-09T12:57:46;5.72;;;1.10;;
39344;SDS011;25061;51.954;6.996;2022-09-09T13:00:23;6.85;;;1.30;;
39344;SDS011;25061;51.954;6.996;2022-09-09T13:03:14;5.30;;;1.35;;
39344;SDS011;25061;51.954;6.996;2022-09-09T13:05:42;5.25;;;1.23;;
39344;SDS011;25061;51.954;6.996;2022-09-09T13:08:08;4.75;;;1.17;;
39344;SDS011;25061;51.954;6.996;2022-09-09T13:10:37;6.80;;;1.25;;
39344;SDS011;25061;51.954;6.996;2022-09-09T13:15:58;7.68;;;1.48;;
39344;SDS011;25061;51.954;6.996;2022-09-09T13:18:29;8.50;;;1.88;;
39344;SDS011;25061;51.954;6.996;2022-09-09T13:21:00;5.18;;;1.50;;
39344;SDS011;25061;51.954;6.996;2022-09-09T13:23:26;5.78;;;1.30;;
39344;SDS011;25061;51.954;6.996;2022-09-09T13:25:55;5.55;;;1.67;;
39344;SDS011;25061;51.954;6.996;2022-09-09T13:28:25;7.22;;;1.98;;
39344;SDS011;25061;51.954;6.996;2022-09-09T13:30:59;5.82;;;1.00;;
39344;SDS011;25061;51.954;6.996;2022-09-09T13:33:30;7.70;;;2.08;;
39344;SDS011;25061;51.954;6.996;2022-09-09T13:38:35;4.78;;;1.05;;
39344;SDS011;25061;51.954;6.996;2022-09-09T13:41:04;3.13;;;0.80;;
39344;SDS011;25061;51.954;6.996;2022-09-09T13:43:36;5.90;;;1.60;;
39344;SDS011;25061;51.954;6.996;2022-09-09T13:49:02;4.65;;;0.82;;
39344;SDS011;25061;51.954;6.996;2022-09-09T13:51:38;5.88;;;1.10;;
39344;SDS011;25061;51.954;6.996;2022-09-09T13:54:05;3.58;;;0.95;;
39344;SDS011;25061;51.954;6.996;2022-09-09T13:56:34;4.72;;;1.00;;
39344;SDS011;25061;51.954;6.996;2022-09-09T13:59:00;3.40;;;0.70;;
39344;SDS011;25061;51.954;6.996;2022-09-09T14:01:27;4.35;;;0.85;;
39344;SDS011;25061;51.954;6.996;2022-09-09T14:03:53;3.17;;;0.95;;
39344;SDS011;25061;51.954;6.996;2022-09-09T14:06:25;2.42;;;1.00;;
39344;SDS011;25061;51.954;6.996;2022-09-09T14:08:51;6.75;;;1.60;;
39344;SDS011;25061;51.954;6.996;2022-09-09T14:11:17;5.43;;;1.20;;
39344;SDS011;25061;51.954;6.996;2022-09-09T14:13:43;6.15;;;1.55;;
39344;SDS011;25061;51.954;6.996;2022-09-09T14:16:09;4.32;;;1.20;;
39344;SDS011;25061;51.954;6.996;2022-09-09T14:18:35;4.35;;;1.10;;
39344;SDS011;25061;51.954;6.996;2022-09-09T14:21:00;5.05;;;1.10;;
39344;SDS011;25061;51.954;6.996;2022-09-09T14:23:27;5.88;;;1.30;;
39344;SDS011;25061;51.954;6.996;2022-09-09T14:25:54;5.85;;;0.98;;
39344;SDS011;25061;51.954;6.996;2022-09-09T14:28:20;5.65;;;1.58;;
39344;SDS011;25061;51.954;6.996;2022-09-09T14:30:45;4.75;;;1.67;;
39344;SDS011;25061;51.954;6.996;2022-09-09T14:33:56;9.45;;;1.77;;
39344;SDS011;25061;51.954;6.996;2022-09-09T14:36:21;5.63;;;1.77;;
39344;SDS011;25061;51.954;6.996;2022-09-09T14:38:47;6.57;;;1.58;;
39344;SDS011;25061;51.954;6.996;2022-09-09T14:41:14;2.50;;;1.00;;
39344;SDS011;25061;51.954;6.996;2022-09-09T14:43:45;4.60;;;1.17;;
39344;SDS011;25061;51.954;6.996;2022-09-09T14:46:11;7.20;;;1.58;;
39344;SDS011;25061;51.954;6.996;2022-09-09T14:48:39;4.05;;;1.15;;
39344;SDS011;25061;51.954;6.996;2022-09-09T14:51:10;7.25;;;1.40;;
39344;SDS011;25061;51.954;6.996;2022-09-09T14:53:38;4.63;;;0.95;;
39344;SDS011;25061;51.954;6.996;2022-09-09T14:56:11;3.35;;;1.25;;
39344;SDS011;25061;51.954;6.996;2022-09-09T14:58:39;4.60;;;1.20;;
39344;SDS011;25061;51.954;6.996;2022-09-09T15:01:06;5.63;;;1.35;;
39344;SDS011;25061;51.954;6.996;2022-09-09T15:03:35;6.63;;;1.52;;
39344;SDS011;25061;51.954;6.996;2022-09-09T15:06:11;3.63;;;1.05;;
39344;SDS011;25061;51.954;6.996;2022-09-09T15:08:40;6.50;;;1.55;;
39344;SDS011;25061;51.954;6.996;2022-09-09T15:11:11;4.25;;;1.00;;
39344;SDS011;25061;51.954;6.996;2022-09-09T15:13:38;3.13;;;1.00;;
39344;SDS011;25061;51.954;6.996;2022-09-09T15:16:08;5.38;;;1.30;;
39344;SDS011;25061;51.954;6.996;2022-09-09T15:18:34;4.40;;;1.50;;
39344;SDS011;25061;51.954;6.996;2022-09-09T15:21:01;4.85;;;1.52;;
39344;SDS011;25061;51.954;6.996;2022-09-09T15:23:33;6.60;;;1.90;;
39344;SDS011;25061;51.954;6.996;2022-09-09T15:26:01;6.43;;;1.52;;
39344;SDS011;25061;51.954;6.996;2022-09-09T15:28:27;4.82;;;1.42;;
39344;SDS011;25061;51.954;6.996;2022-09-09T15:30:53;8.00;;;1.60;;
39344;SDS011;25061;51.954;6.996;2022-09-09T15:33:20;5.43;;;1.58;;
39344;SDS011;25061;51.954;6.996;2022-09-09T15:35:47;6.45;;;1.60;;
39344;SDS011;25061;51.954;6.996;2022-09-09T15:38:14;5.57;;;1.60;;
39344;SDS011;25061;51.954;6.996;2022-09-09T15:40:41;5.63;;;1.30;;
39344;SDS011;25061;51.954;6.996;2022-09-09T15:43:08;7.00;;;1.70;;
39344;SDS011;25061;51.954;6.996;2022-09-09T15:45:35;3.80;;;1.20;;
39344;SDS011;25061;51.954;6.996;2022-09-09T15:48:01;6.53;;;2.05;;
39344;SDS011;25061;51.954;6.996;2022-09-09T15:50:27;6.72;;;1.50;;
39344;SDS011;25061;51.954;6.996;2022-09-09T15:52:55;3.97;;;1.00;;
39344;SDS011;25061;51.954;6.996;2022-09-09T15:55:21;4.07;;;1.20;;
39344;SDS011;25061;51.954;6.996;2022-09-09T15:57:46;5.05;;;1.05;;
39344;SDS011;25061;51.954;6.996;2022-09-09T16:00:12;4.47;;;1.00;;
39344;SDS011;25061;51.954;6.996;2022-09-09T16:02:38;4.88;;;1.05;;
39344;SDS011;25061;51.954;6.996;2022-09-09T16:05:04;3.58;;;1.05;;
39344;SDS011;25061;51.954;6.996;2022-09-09T16:07:30;4.32;;;1.00;;
39344;SDS011;25061;51.954;6.996;2022-09-09T16:09:56;2.53;;;0.88;;
39344;SDS011;25061;51.954;6.996;2022-09-09T16:12:21;3.90;;;0.95;;
39344;SDS011;25061;51.954;6.996;2022-09-09T16:14:47;3.25;;;1.13;;
39344;SDS011;25061;51.954;6.996;2022-09-09T16:17:12;2.80;;;0.73;;
39344;SDS011;25061;51.954;6.996;2022-09-09T16:19:39;2.17;;;0.60;;
39344;SDS011;25061;51.954;6.996;2022-09-09T16:22:04;2.00;;;0.60;;
39344;SDS011;25061;51.954;6.996;2022-09-09T16:24:31;1.88;;;0.60;;
39344;SDS011;25061;51.954;6.996;2022-09-09T16:26:57;3.55;;;0.80;;
39344;SDS011;25061;51.954;6.996;2022-09-09T16:29:22;4.75;;;1.15;;
39344;SDS011;25061;51.954;6.996;2022-09-09T16:31:49;4.00;;;1.10;;
39344;SDS011;25061;51.954;6.996;2022-09-09T16:34:15;2.03;;;0.60;;
39344;SDS011;25061;51.954;6.996;2022-09-09T16:36:46;3.80;;;0.68;;
39344;SDS011;25061;51.954;6.996;2022-09-09T16:39:14;2.22;;;0.70;;
39344;SDS011;25061;51.954;6.996;2022-09-09T16:41:41;2.75;;;0.70;;
39344;SDS011;25061;51.954;6.996;2022-09-09T16:44:09;2.78;;;0.77;;
39344;SDS011;25061;51.954;6.996;2022-09-09T16:46:38;2.72;;;0.80;;
39344;SDS011;25061;51.954;6.996;2022-09-09T16:49:06;2.65;;;0.60;;
39344;SDS011;25061;51.954;6.996;2022-09-09T16:51:35;2.90;;;0.80;;
39344;SDS011;25061;51.954;6.996;2022-09-09T16:54:05;5.03;;;1.25;;
39344;SDS011;25061;51.954;6.996;2022-09-09T16:56:32;3.53;;;0.90;;
39344;SDS011;25061;51.954;6.996;2022-09-09T16:59:02;4.40;;;1.00;;
39344;SDS011;25061;51.954;6.996;2022-09-09T17:01:31;3.17;;;1.05;;
39344;SDS011;25061;51.954;6.996;2022-09-09T17:04:09;7.30;;;1.10;;
39344;SDS011;25061;51.954;6.996;2022-09-09T17:06:41;4.50;;;1.00;;
39344;SDS011;25061;51.954;6.996;2022-09-09T17:09:08;3.72;;;0.90;;
39344;SDS011;25061;51.954;6.996;2022-09-09T17:11:35;3.80;;;0.90;;
39344;SDS011;25061;51.954;6.996;2022-09-09T17:14:03;4.05;;;1.10;;
39344;SDS011;25061;51.954;6.996;2022-09-09T17:16:29;3.33;;;0.70;;
39344;SDS011;25061;51.954;6.996;2022-09-09T17:18:56;5.65;;;1.10;;
39344;SDS011;25061;51.954;6.996;2022-09-09T17:21:26;4.05;;;1.35;;
39344;SDS011;25061;51.954;6.996;2022-09-09T17:23:53;5.40;;;1.20;;
39344;SDS011;25061;51.954;6.996;2022-09-09T17:26:20;4.15;;;1.10;;
39344;SDS011;25061;51.954;6.996;2022-09-09T17:28:48;5.28;;;1.23;;
39344;SDS011;25061;51.954;6.996;2022-09-09T17:31:15;3.47;;;0.90;;